createdAt,value
2019-01-15T00:00:32.448Z,1.9
2019-01-15T00:01:39.667Z,1.9
2019-01-15T00:02:46.879Z,1.9
2019-01-15T00:03:54.078Z,1.9
2019-01-15T00:05:01.273Z,1.9
2019-01-15T00:06:08.480Z,1.9
2019-01-15T00:07:15.672Z,1.9
2019-01-15T00:08:22.888Z,1.9
2019-01-15T00:09:30.099Z,1.9
2019-01-15T00:10:37.328Z,1.9
2019-01-15T00:11:44.527Z,1.9
2019-01-15T00:12:51.469Z,1.9
2019-01-15T00:13:58.675Z,1.9
2019-01-15T00:15:05.891Z,1.9
2019-01-15T00:16:12.820Z,1.9
2019-01-15T00:17:20.046Z,1.9
2019-01-15T00:18:26.969Z,1.8
2019-01-15T00:19:33.384Z,1.8
2019-01-15T00:20:40.309Z,1.8
2019-01-15T00:21:47.515Z,1.8
2019-01-15T00:22:54.720Z,1.9
2019-01-15T00:24:01.923Z,1.9
2019-01-15T00:25:09.119Z,1.9
2019-01-15T00:26:16.338Z,1.9
2019-01-15T00:27:23.546Z,1.9
2019-01-15T00:28:30.215Z,1.9
2019-01-15T00:29:37.416Z,1.9
2019-01-15T00:30:44.630Z,1.8
2019-01-15T00:31:51.568Z,1.8
2019-01-15T00:32:58.777Z,1.8
2019-01-15T00:34:05.982Z,1.8
2019-01-15T00:35:12.914Z,1.8
2019-01-15T00:36:20.168Z,1.9
2019-01-15T00:37:27.384Z,1.8
2019-01-15T00:38:34.598Z,1.8
2019-01-15T00:39:41.807Z,1.8
2019-01-15T00:40:49.012Z,1.8
2019-01-15T00:41:55.931Z,1.8
2019-01-15T00:43:03.132Z,1.8
2019-01-15T00:44:10.339Z,1.8
2019-01-15T00:45:17.281Z,1.8
2019-01-15T00:46:24.477Z,1.8
2019-01-15T00:47:31.679Z,1.8
2019-01-15T00:48:38.617Z,1.8
2019-01-15T00:49:45.825Z,1.8
2019-01-15T00:50:53.045Z,1.8
2019-01-15T00:52:00.245Z,1.8
2019-01-15T00:53:07.173Z,1.8
2019-01-15T00:54:14.099Z,1.8
2019-01-15T00:55:21.039Z,1.8
2019-01-15T00:56:27.964Z,1.8
2019-01-15T00:57:35.177Z,1.8
2019-01-15T00:58:42.372Z,1.8
2019-01-15T00:59:49.581Z,1.8
2019-01-15T01:00:56.789Z,1.8
2019-01-15T01:02:03.986Z,1.8
2019-01-15T01:03:11.185Z,1.8
2019-01-15T01:04:18.378Z,1.8
2019-01-15T01:05:25.591Z,1.8
2019-01-15T01:06:32.811Z,1.8
2019-01-15T01:07:40.013Z,1.8
2019-01-15T01:08:47.228Z,1.8
2019-01-15T01:09:54.431Z,1.8
2019-01-15T01:11:01.629Z,1.8
2019-01-15T01:12:08.838Z,1.8
2019-01-15T01:13:16.034Z,1.8
2019-01-15T01:14:23.253Z,1.8
2019-01-15T01:15:30.176Z,1.8
2019-01-15T01:16:37.377Z,1.8
2019-01-15T01:17:44.780Z,1.7
2019-01-15T01:18:51.980Z,1.8
2019-01-15T01:19:59.176Z,1.8
2019-01-15T01:21:06.109Z,1.8
2019-01-15T01:22:13.306Z,1.7
2019-01-15T01:23:20.522Z,1.8
2019-01-15T01:24:27.726Z,1.8
2019-01-15T01:25:34.929Z,1.8
2019-01-15T01:26:41.850Z,1.8
2019-01-15T01:27:49.050Z,1.8
2019-01-15T01:28:56.264Z,1.8
2019-01-15T01:30:03.209Z,1.8
2019-01-15T01:31:10.144Z,1.8
2019-01-15T01:32:17.360Z,1.8
2019-01-15T01:33:24.582Z,1.8
2019-01-15T01:34:31.792Z,1.8
2019-01-15T01:35:39.011Z,1.8
2019-01-15T01:36:46.219Z,1.8
2019-01-15T01:37:53.153Z,1.8
2019-01-15T01:39:00.354Z,1.8
2019-01-15T01:40:07.273Z,1.8
2019-01-15T01:41:14.483Z,1.8
2019-01-15T01:42:21.682Z,1.8
2019-01-15T01:43:36.048Z,1.8
2019-01-15T01:44:43.265Z,1.8
2019-01-15T01:45:50.470Z,1.8
2019-01-15T01:46:57.687Z,1.8
2019-01-15T01:48:04.894Z,1.8
2019-01-15T01:49:11.815Z,1.8
2019-01-15T01:50:19.023Z,1.8
2019-01-15T01:51:26.226Z,1.8
2019-01-15T01:52:32.896Z,1.8
2019-01-15T01:53:39.822Z,1.8
2019-01-15T01:54:47.024Z,1.8
2019-01-15T01:55:54.231Z,1.8
2019-01-15T01:57:01.472Z,1.8
2019-01-15T01:58:08.401Z,1.8
2019-01-15T01:59:15.323Z,1.8
2019-01-15T02:00:22.529Z,1.8
2019-01-15T02:01:29.733Z,1.8
2019-01-15T02:02:36.968Z,1.8
2019-01-15T02:03:44.177Z,1.8
2019-01-15T02:04:51.387Z,1.8
2019-01-15T02:05:58.330Z,1.8
2019-01-15T02:07:05.537Z,1.8
2019-01-15T02:08:12.742Z,1.8
2019-01-15T02:09:19.951Z,1.8
2019-01-15T02:10:27.196Z,1.8
2019-01-15T02:11:34.389Z,1.8
2019-01-15T02:12:41.595Z,1.8
2019-01-15T02:13:48.520Z,1.8
2019-01-15T02:14:55.715Z,1.8
2019-01-15T02:16:02.922Z,1.8
2019-01-15T02:17:09.862Z,1.8
2019-01-15T02:18:17.072Z,1.7
2019-01-15T02:19:24.278Z,1.7
2019-01-15T02:20:31.512Z,1.7
2019-01-15T02:21:38.722Z,1.7
2019-01-15T02:22:45.643Z,1.7
2019-01-15T02:23:52.562Z,1.8
2019-01-15T02:24:59.487Z,1.7
2019-01-15T02:26:06.690Z,1.7
2019-01-15T02:27:13.892Z,1.7
2019-01-15T02:28:20.355Z,1.7
2019-01-15T02:29:27.291Z,1.7
2019-01-15T02:30:34.524Z,1.7
2019-01-15T02:31:41.757Z,1.7
2019-01-15T02:32:48.968Z,1.7
2019-01-15T02:33:56.173Z,1.7
2019-01-15T02:35:03.396Z,1.7
2019-01-15T02:36:10.323Z,1.7
2019-01-15T02:37:17.245Z,1.7
2019-01-15T02:38:24.447Z,1.7
2019-01-15T02:39:31.640Z,1.6
2019-01-15T02:40:38.572Z,1.6
2019-01-15T02:41:45.837Z,1.6
2019-01-15T02:42:53.032Z,1.6
2019-01-15T02:44:00.247Z,1.6
2019-01-15T02:45:07.465Z,1.6
2019-01-15T02:46:14.677Z,1.6
2019-01-15T02:47:21.921Z,1.6
2019-01-15T02:48:29.137Z,1.6
2019-01-15T02:49:36.346Z,1.6
2019-01-15T02:50:43.285Z,1.6
2019-01-15T02:51:50.218Z,1.6
2019-01-15T02:52:57.418Z,1.6
2019-01-15T02:54:04.623Z,1.6
2019-01-15T02:55:11.829Z,1.6
2019-01-15T02:56:18.763Z,1.6
2019-01-15T02:57:25.976Z,1.6
2019-01-15T02:58:33.182Z,1.6
2019-01-15T02:59:40.403Z,1.6
2019-01-15T03:00:47.610Z,1.6
2019-01-15T03:01:54.811Z,1.6
2019-01-15T03:03:02.016Z,1.6
2019-01-15T03:04:09.215Z,1.6
2019-01-15T03:05:16.413Z,1.6
2019-01-15T03:06:23.621Z,1.6
2019-01-15T03:07:30.584Z,1.6
2019-01-15T03:08:37.521Z,1.6
2019-01-15T03:09:44.728Z,1.6
2019-01-15T03:10:51.940Z,1.6
2019-01-15T03:11:59.140Z,1.6
2019-01-15T03:13:06.102Z,1.6
2019-01-15T03:14:13.306Z,1.6
2019-01-15T03:15:20.506Z,1.6
2019-01-15T03:16:27.714Z,1.6
2019-01-15T03:17:34.641Z,1.6
2019-01-15T03:18:41.842Z,1.6
2019-01-15T03:19:48.788Z,1.6
2019-01-15T03:20:55.725Z,1.6
2019-01-15T03:22:02.944Z,1.6
2019-01-15T03:23:10.149Z,1.6
2019-01-15T03:24:17.073Z,1.6
2019-01-15T03:25:24.291Z,1.6
2019-01-15T03:26:31.490Z,1.6
2019-01-15T03:27:38.685Z,1.5
2019-01-15T03:28:45.883Z,1.5
2019-01-15T03:29:52.812Z,1.5
2019-01-15T03:30:59.755Z,1.5
2019-01-15T03:32:06.948Z,1.6
2019-01-15T03:33:14.188Z,1.6
2019-01-15T03:34:21.389Z,1.6
2019-01-15T03:35:28.589Z,1.6
2019-01-15T03:36:37.713Z,1.6
2019-01-15T03:37:44.993Z,1.6
2019-01-15T03:38:52.209Z,1.6
2019-01-15T03:39:59.426Z,1.6
2019-01-15T03:41:06.637Z,1.6
2019-01-15T03:42:13.861Z,1.6
2019-01-15T03:43:21.062Z,1.6
2019-01-15T03:44:27.987Z,1.6
2019-01-15T03:45:35.196Z,1.6
2019-01-15T03:46:42.407Z,1.6
2019-01-15T03:47:49.615Z,1.6
2019-01-15T03:48:56.875Z,1.6
2019-01-15T03:50:04.087Z,1.6
2019-01-15T03:51:11.275Z,1.6
2019-01-15T03:52:18.473Z,1.6
2019-01-15T03:53:25.686Z,1.6
2019-01-15T03:54:32.894Z,1.6
2019-01-15T03:55:39.824Z,1.6
2019-01-15T03:56:47.027Z,1.6
2019-01-15T03:57:54.239Z,1.6
2019-01-15T03:59:01.453Z,1.6
2019-01-15T04:00:08.658Z,1.6
2019-01-15T04:01:15.856Z,1.6
2019-01-15T04:02:23.060Z,1.6
2019-01-15T04:03:30.268Z,1.6
2019-01-15T04:04:37.474Z,1.6
2019-01-15T04:05:44.682Z,1.6
2019-01-15T04:06:51.893Z,1.5
2019-01-15T04:07:58.822Z,1.5
2019-01-15T04:09:06.031Z,1.5
2019-01-15T04:10:13.231Z,1.5
2019-01-15T04:11:20.436Z,1.5
2019-01-15T04:12:27.348Z,1.5
2019-01-15T04:13:34.285Z,1.5
2019-01-15T04:14:41.223Z,1.5
2019-01-15T04:15:48.148Z,1.5
2019-01-15T04:16:55.083Z,1.5
2019-01-15T04:18:02.301Z,1.6
2019-01-15T04:19:09.506Z,1.6
2019-01-15T04:20:16.731Z,1.6
2019-01-15T04:21:23.657Z,1.6
2019-01-15T04:22:30.853Z,1.6
2019-01-15T04:23:37.781Z,1.6
2019-01-15T04:24:44.978Z,1.6
2019-01-15T04:25:51.904Z,1.6
2019-01-15T04:26:59.113Z,1.6
2019-01-15T04:28:06.324Z,1.6
2019-01-15T04:29:13.541Z,1.6
2019-01-15T04:30:20.745Z,1.6
2019-01-15T04:31:27.951Z,1.6
2019-01-15T04:32:35.161Z,1.6
2019-01-15T04:33:42.367Z,1.6
2019-01-15T04:34:49.799Z,1.6
2019-01-15T04:35:57.010Z,1.6
2019-01-15T04:37:04.216Z,1.6
2019-01-15T04:38:11.429Z,1.6
2019-01-15T04:39:18.630Z,1.6
2019-01-15T04:40:25.900Z,1.6
2019-01-15T04:41:33.107Z,1.6
2019-01-15T04:42:40.316Z,1.6
2019-01-15T04:43:47.534Z,1.6
2019-01-15T04:44:54.472Z,1.6
2019-01-15T04:46:01.677Z,1.6
2019-01-15T04:47:08.883Z,1.6
2019-01-15T04:48:15.804Z,1.6
2019-01-15T04:49:23.003Z,1.6
2019-01-15T04:50:30.236Z,1.6
2019-01-15T04:51:37.153Z,1.7
2019-01-15T04:52:44.357Z,1.7
2019-01-15T04:53:51.307Z,1.7
2019-01-15T04:54:58.515Z,1.7
2019-01-15T04:56:05.457Z,1.7
2019-01-15T04:57:12.388Z,1.6
2019-01-15T04:58:19.330Z,1.6
2019-01-15T04:59:26.256Z,1.6
2019-01-15T05:00:33.185Z,1.6
2019-01-15T05:01:40.397Z,1.6
2019-01-15T05:02:47.324Z,1.6
2019-01-15T05:03:54.525Z,1.6
2019-01-15T05:05:01.719Z,1.6
2019-01-15T05:06:08.976Z,1.6
2019-01-15T05:07:16.185Z,1.6
2019-01-15T05:08:23.383Z,1.6
2019-01-15T05:09:30.046Z,1.6
2019-01-15T05:10:36.992Z,1.6
2019-01-15T05:11:43.646Z,1.7
2019-01-15T05:12:50.862Z,1.7
2019-01-15T05:13:57.778Z,1.7
2019-01-15T05:15:04.979Z,1.7
2019-01-15T05:16:11.636Z,1.7
2019-01-15T05:17:18.826Z,1.7
2019-01-15T05:18:26.057Z,1.7
2019-01-15T05:19:33.290Z,1.6
2019-01-15T05:20:40.213Z,1.6
2019-01-15T05:21:47.415Z,1.6
2019-01-15T05:22:54.337Z,1.6
2019-01-15T05:24:01.543Z,1.6
2019-01-15T05:25:08.497Z,1.6
2019-01-15T05:26:15.696Z,1.6
2019-01-15T05:27:23.128Z,1.6
2019-01-15T05:28:30.328Z,1.6
2019-01-15T05:29:37.538Z,1.6
2019-01-15T05:30:44.745Z,1.6
2019-01-15T05:31:51.942Z,1.5
2019-01-15T05:32:58.879Z,1.6
2019-01-15T05:34:06.092Z,1.6
2019-01-15T05:35:13.021Z,1.6
2019-01-15T05:36:19.960Z,1.5
2019-01-15T05:37:27.165Z,1.5
2019-01-15T05:38:34.381Z,1.5
2019-01-15T05:39:41.574Z,1.5
2019-01-15T05:40:48.784Z,1.5
2019-01-15T05:41:55.992Z,1.5
2019-01-15T05:43:03.198Z,1.5
2019-01-15T05:44:10.734Z,1.5
2019-01-15T05:45:17.954Z,1.5
2019-01-15T05:46:24.898Z,1.5
2019-01-15T05:47:32.122Z,1.5
2019-01-15T05:48:39.318Z,1.5
2019-01-15T05:49:45.981Z,1.5
2019-01-15T05:50:53.184Z,1.5
2019-01-15T05:52:00.106Z,1.4
2019-01-15T05:53:07.036Z,1.4
2019-01-15T05:54:14.241Z,1.4
2019-01-15T05:55:21.490Z,1.4
2019-01-15T05:56:28.159Z,1.4
2019-01-15T05:57:35.357Z,1.4
2019-01-15T05:58:42.559Z,1.4
2019-01-15T05:59:49.778Z,1.4
2019-01-15T06:00:56.981Z,1.4
2019-01-15T06:02:03.647Z,1.4
2019-01-15T06:03:10.851Z,1.5
2019-01-15T06:04:18.049Z,1.5
2019-01-15T06:05:25.263Z,1.5
2019-01-15T06:06:32.467Z,1.5
2019-01-15T06:07:39.669Z,1.5
2019-01-15T06:08:46.875Z,1.5
2019-01-15T06:09:54.080Z,1.5
2019-01-15T06:11:01.512Z,1.5
2019-01-15T06:12:08.725Z,1.5
2019-01-15T06:13:15.647Z,1.5
2019-01-15T06:14:22.587Z,1.5
2019-01-15T06:15:29.787Z,1.5
2019-01-15T06:16:38.035Z,1.5
2019-01-15T06:17:44.970Z,1.5
2019-01-15T06:18:52.192Z,1.5
2019-01-15T06:19:59.402Z,1.5
2019-01-15T06:21:06.329Z,1.5
2019-01-15T06:22:13.531Z,1.5
2019-01-15T06:23:20.727Z,1.5
2019-01-15T06:24:27.941Z,1.5
2019-01-15T06:25:34.881Z,1.5
2019-01-15T06:26:42.085Z,1.5
2019-01-15T06:27:48.763Z,1.5
2019-01-15T06:28:55.968Z,1.5
2019-01-15T06:30:02.911Z,1.5
2019-01-15T06:31:10.162Z,1.5
2019-01-15T06:32:17.376Z,1.5
2019-01-15T06:33:24.569Z,1.5
2019-01-15T06:34:31.767Z,1.5
2019-01-15T06:35:38.979Z,1.5
2019-01-15T06:36:46.176Z,1.5
2019-01-15T06:37:53.099Z,1.5
2019-01-15T06:39:00.029Z,1.5
2019-01-15T06:40:07.249Z,1.5
2019-01-15T06:41:14.455Z,1.5
2019-01-15T06:42:21.655Z,1.5
2019-01-15T06:43:28.345Z,1.5
2019-01-15T06:44:35.539Z,1.5
2019-01-15T06:45:42.820Z,1.5
2019-01-15T06:46:50.015Z,1.5
2019-01-15T06:47:57.218Z,1.6
2019-01-15T06:49:04.422Z,1.5
2019-01-15T06:50:11.384Z,1.6
2019-01-15T06:51:18.050Z,1.6
2019-01-15T06:52:25.276Z,1.6
2019-01-15T06:53:32.215Z,1.6
2019-01-15T06:54:39.422Z,1.6
2019-01-15T06:55:46.647Z,1.6
2019-01-15T06:56:53.295Z,1.6
2019-01-15T06:58:00.497Z,1.6
2019-01-15T06:59:07.720Z,1.6
2019-01-15T07:00:14.921Z,1.6
2019-01-15T07:01:22.120Z,1.6
2019-01-15T07:02:29.325Z,1.6
2019-01-15T07:03:36.271Z,1.6
2019-01-15T07:04:44.541Z,1.6
2019-01-15T07:05:51.754Z,1.6
2019-01-15T07:06:58.680Z,1.6
2019-01-15T07:08:05.915Z,1.7
2019-01-15T07:09:12.555Z,1.6
2019-01-15T07:10:19.773Z,1.7
2019-01-15T07:11:26.977Z,1.7
2019-01-15T07:12:34.193Z,1.7
2019-01-15T07:13:41.108Z,1.7
2019-01-15T07:14:48.024Z,1.7
2019-01-15T07:15:55.235Z,1.7
2019-01-15T07:17:02.434Z,1.7
2019-01-15T07:18:09.641Z,1.7
2019-01-15T07:19:17.015Z,1.7
2019-01-15T07:20:24.221Z,1.7
2019-01-15T07:21:31.416Z,1.7
2019-01-15T07:22:38.347Z,1.8
2019-01-15T07:23:45.556Z,1.7
2019-01-15T07:24:52.789Z,1.7
2019-01-15T07:25:59.991Z,1.8
2019-01-15T07:27:07.195Z,1.8
2019-01-15T07:28:14.390Z,1.8
2019-01-15T07:29:21.599Z,1.8
2019-01-15T07:30:28.805Z,1.8
2019-01-15T07:31:35.999Z,1.8
2019-01-15T07:32:43.443Z,1.8
2019-01-15T07:33:50.666Z,1.8
2019-01-15T07:34:57.866Z,1.8
2019-01-15T07:36:05.105Z,1.8
2019-01-15T07:37:12.306Z,1.8
2019-01-15T07:38:19.513Z,1.8
2019-01-15T07:39:26.735Z,1.8
2019-01-15T07:40:33.938Z,1.8
2019-01-15T07:41:40.884Z,1.8
2019-01-15T07:42:48.084Z,1.8
2019-01-15T07:43:55.284Z,1.8
2019-01-15T07:45:02.481Z,1.8
2019-01-15T07:46:09.692Z,1.8
2019-01-15T07:47:16.901Z,1.8
2019-01-15T07:48:24.091Z,1.8
2019-01-15T07:49:31.294Z,1.8
2019-01-15T07:50:38.516Z,1.8
2019-01-15T07:51:45.168Z,1.8
2019-01-15T07:52:52.410Z,1.8
2019-01-15T07:53:59.336Z,1.8
2019-01-15T07:55:07.518Z,1.9
2019-01-15T07:56:14.719Z,1.9
2019-01-15T07:57:21.935Z,1.9
2019-01-15T07:58:29.141Z,1.9
2019-01-15T07:59:36.088Z,1.9
2019-01-15T08:00:43.024Z,1.9
2019-01-15T08:01:50.221Z,1.9
2019-01-15T08:02:57.454Z,1.9
2019-01-15T08:04:04.653Z,1.9
2019-01-15T08:05:11.854Z,1.9
2019-01-15T08:06:19.067Z,1.9
2019-01-15T08:07:25.996Z,2
2019-01-15T08:08:33.204Z,1.9
2019-01-15T08:09:40.430Z,2
2019-01-15T08:10:47.641Z,2
2019-01-15T08:11:54.864Z,2
2019-01-15T08:13:02.098Z,2
2019-01-15T08:14:12.693Z,2
2019-01-15T08:15:19.901Z,2
2019-01-15T08:16:27.098Z,2.1
2019-01-15T08:17:34.323Z,2.1
2019-01-15T08:18:41.530Z,2.1
2019-01-15T08:19:48.755Z,2.1
2019-01-15T08:20:55.964Z,2.1
2019-01-15T08:22:02.894Z,2.1
2019-01-15T08:23:10.107Z,2.1
2019-01-15T08:24:17.311Z,2.2
2019-01-15T08:25:24.526Z,2.2
2019-01-15T08:26:31.728Z,2.2
2019-01-15T08:27:38.934Z,2.2
2019-01-15T08:28:46.137Z,2.2
2019-01-15T08:29:53.329Z,2.3
2019-01-15T08:31:00.538Z,2.3
2019-01-15T08:32:07.790Z,2.3
2019-01-15T08:33:14.990Z,2.3
2019-01-15T08:34:22.195Z,2.3
2019-01-15T08:35:29.397Z,2.3
2019-01-15T08:36:36.601Z,2.4
2019-01-15T08:37:43.523Z,2.4
2019-01-15T08:38:50.724Z,2.4
2019-01-15T08:39:57.929Z,2.4
2019-01-15T08:41:04.863Z,2.4
2019-01-15T08:42:11.785Z,2.4
2019-01-15T08:43:18.715Z,2.5
2019-01-15T08:44:25.965Z,2.4
2019-01-15T08:45:33.165Z,2.5
2019-01-15T08:46:40.111Z,2.5
2019-01-15T08:47:47.035Z,2.5
2019-01-15T08:48:54.238Z,2.5
2019-01-15T08:50:01.434Z,2.5
2019-01-15T08:51:08.643Z,2.6
2019-01-15T08:52:15.854Z,2.6
2019-01-15T08:53:23.050Z,2.6
2019-01-15T08:54:30.258Z,2.6
2019-01-15T08:55:37.472Z,2.6
2019-01-15T08:56:44.678Z,2.6
2019-01-15T08:57:51.877Z,2.6
2019-01-15T08:58:59.071Z,2.7
2019-01-15T09:00:06.266Z,2.7
2019-01-15T09:01:13.475Z,2.7
2019-01-15T09:02:20.404Z,2.7
2019-01-15T09:03:27.603Z,2.7
2019-01-15T09:04:34.533Z,2.7
2019-01-15T09:05:42.397Z,2.7
2019-01-15T09:06:49.335Z,2.8
2019-01-15T09:07:56.585Z,2.8
2019-01-15T09:09:03.792Z,2.8
2019-01-15T09:10:10.995Z,2.8
2019-01-15T09:11:18.220Z,2.8
2019-01-15T09:12:25.422Z,2.9
2019-01-15T09:13:32.671Z,3
2019-01-15T09:14:39.612Z,3
2019-01-15T09:15:46.818Z,3.1
2019-01-15T09:16:54.066Z,3.1
2019-01-15T09:18:01.476Z,3.1
2019-01-15T09:19:08.692Z,3.1
2019-01-15T09:20:15.907Z,3.1
2019-01-15T09:21:23.183Z,3.2
2019-01-15T09:22:30.410Z,3.2
2019-01-15T09:23:37.612Z,3.3
2019-01-15T09:24:44.832Z,3.3
2019-01-15T09:25:52.063Z,3.3
2019-01-15T09:26:59.265Z,3.3
2019-01-15T09:28:06.190Z,3.3
2019-01-15T09:29:13.137Z,3.4
2019-01-15T09:30:20.377Z,3.4
2019-01-15T09:31:27.588Z,3.4
2019-01-15T09:32:34.791Z,3.4
2019-01-15T09:33:41.744Z,3.5
2019-01-15T09:34:48.951Z,3.5
2019-01-15T09:35:56.167Z,3.5
2019-01-15T09:37:04.789Z,3.5
2019-01-15T09:38:12.036Z,3.5
2019-01-15T09:39:18.965Z,3.5
2019-01-15T09:40:25.889Z,3.5
2019-01-15T09:41:33.101Z,3.5
2019-01-15T09:42:40.043Z,3.5
2019-01-15T09:43:47.243Z,3.5
2019-01-15T09:44:54.459Z,3.6
2019-01-15T09:46:01.709Z,3.6
2019-01-15T09:47:08.905Z,3.6
2019-01-15T09:48:15.566Z,3.6
2019-01-15T09:49:22.768Z,3.6
2019-01-15T09:50:44.622Z,3.6
2019-01-15T09:51:51.848Z,3.5
2019-01-15T09:52:59.063Z,3.5
2019-01-15T09:54:06.264Z,3.5
2019-01-15T09:55:13.474Z,3.6
2019-01-15T09:56:20.402Z,3.6
2019-01-15T09:57:27.613Z,3.6
2019-01-15T09:58:34.876Z,3.6
2019-01-15T09:59:42.101Z,3.6
2019-01-15T10:00:49.304Z,3.6
2019-01-15T10:01:56.508Z,3.6
2019-01-15T10:03:03.712Z,3.6
2019-01-15T10:04:10.915Z,3.5
2019-01-15T10:05:17.834Z,3.6
2019-01-15T10:06:25.037Z,3.6
2019-01-15T10:07:31.709Z,3.6
2019-01-15T10:08:38.910Z,3.6
2019-01-15T10:09:46.123Z,3.6
2019-01-15T10:10:53.331Z,3.6
2019-01-15T10:12:00.265Z,3.6
2019-01-15T10:13:07.192Z,3.6
2019-01-15T10:14:14.389Z,3.6
2019-01-15T10:15:21.602Z,3.6
2019-01-15T10:16:28.812Z,3.6
2019-01-15T10:17:36.015Z,3.7
2019-01-15T10:18:43.231Z,3.7
2019-01-15T10:19:50.438Z,3.7
2019-01-15T10:20:57.405Z,3.7
2019-01-15T10:22:04.613Z,3.7
2019-01-15T10:23:11.815Z,3.7
2019-01-15T10:24:19.032Z,3.7
2019-01-15T10:25:26.239Z,3.7
2019-01-15T10:26:33.441Z,3.7
2019-01-15T10:27:40.659Z,3.7
2019-01-15T10:28:47.884Z,3.7
2019-01-15T10:29:59.739Z,3.7
2019-01-15T10:31:06.942Z,3.8
2019-01-15T10:32:14.148Z,3.8
2019-01-15T10:33:21.358Z,3.8
2019-01-15T10:34:28.555Z,3.8
2019-01-15T10:35:35.762Z,3.7
2019-01-15T10:36:42.962Z,3.8
2019-01-15T10:37:50.168Z,3.8
2019-01-15T10:38:57.384Z,3.8
2019-01-15T10:40:04.586Z,3.9
2019-01-15T10:41:11.828Z,3.9
2019-01-15T10:42:19.030Z,3.9
2019-01-15T10:43:26.001Z,3.8
2019-01-15T10:44:33.218Z,3.8
2019-01-15T10:45:40.180Z,3.8
2019-01-15T10:46:47.127Z,3.8
2019-01-15T10:47:54.328Z,3.9
2019-01-15T10:49:01.538Z,3.8
2019-01-15T10:50:08.753Z,3.9
2019-01-15T10:51:15.970Z,3.9
2019-01-15T10:52:23.188Z,3.9
2019-01-15T10:53:30.388Z,3.9
2019-01-15T10:54:37.322Z,3.9
2019-01-15T10:55:44.268Z,3.9
2019-01-15T10:56:51.220Z,3.9
2019-01-15T10:57:59.018Z,3.9
2019-01-15T10:59:06.219Z,4
2019-01-15T11:00:13.157Z,4
2019-01-15T11:01:20.354Z,4
2019-01-15T11:02:27.552Z,4
2019-01-15T11:03:34.751Z,4
2019-01-15T11:04:41.700Z,4
2019-01-15T11:05:48.910Z,4
2019-01-15T11:06:56.124Z,4
2019-01-15T11:08:03.344Z,4
2019-01-15T11:09:10.554Z,4
2019-01-15T11:10:17.983Z,4
2019-01-15T11:11:25.195Z,4
2019-01-15T11:12:32.395Z,4
2019-01-15T11:13:39.675Z,4
2019-01-15T11:14:46.868Z,3.9
2019-01-15T11:15:53.788Z,3.9
2019-01-15T11:17:01.008Z,3.9
2019-01-15T11:18:08.227Z,3.9
2019-01-15T11:19:15.181Z,3.9
2019-01-15T11:20:22.389Z,3.9
2019-01-15T11:21:29.322Z,3.9
2019-01-15T11:22:36.522Z,3.9
2019-01-15T11:23:43.726Z,4
2019-01-15T11:24:50.924Z,4
2019-01-15T11:25:58.128Z,4
2019-01-15T11:27:05.348Z,4
2019-01-15T11:28:12.026Z,4
2019-01-15T11:29:19.234Z,4
2019-01-15T11:30:26.455Z,4
2019-01-15T11:31:33.651Z,4
2019-01-15T11:32:40.858Z,4
2019-01-15T11:33:48.074Z,4
2019-01-15T11:34:55.281Z,4
2019-01-15T11:36:01.933Z,4
2019-01-15T11:37:08.854Z,4.1
2019-01-15T11:38:15.789Z,4.1
2019-01-15T11:39:22.996Z,4.1
2019-01-15T11:40:30.208Z,4.1
2019-01-15T11:41:37.130Z,4.1
2019-01-15T11:42:44.337Z,4.2
2019-01-15T11:43:51.556Z,4.2
2019-01-15T11:45:04.031Z,4.2
2019-01-15T11:46:11.245Z,4.2
2019-01-15T11:47:18.448Z,4.2
2019-01-15T11:48:25.447Z,4.2
2019-01-15T11:49:32.649Z,4.3
2019-01-15T11:50:39.579Z,4.3
2019-01-15T11:51:46.787Z,4.3
2019-01-15T11:52:54.015Z,4.3
2019-01-15T11:54:01.214Z,4.3
2019-01-15T11:55:07.896Z,4.4
2019-01-15T11:56:15.099Z,4.4
2019-01-15T11:57:22.313Z,4.5
2019-01-15T11:58:29.518Z,4.5
2019-01-15T11:59:36.466Z,4.5
2019-01-15T12:00:43.670Z,4.5
2019-01-15T12:01:50.619Z,4.5
2019-01-15T12:02:57.825Z,4.5
2019-01-15T12:04:04.763Z,4.5
2019-01-15T12:05:11.976Z,4.5
2019-01-15T12:06:19.184Z,4.6
2019-01-15T12:07:26.390Z,4.5
2019-01-15T12:08:33.644Z,4.5
2019-01-15T12:09:40.854Z,4.5
2019-01-15T12:10:47.807Z,4.5
2019-01-15T12:11:55.019Z,4.5
2019-01-15T12:13:01.985Z,4.5
2019-01-15T12:14:09.198Z,4.5
2019-01-15T12:15:16.130Z,4.5
2019-01-15T12:16:22.795Z,4.5
2019-01-15T12:17:30.020Z,4.5
2019-01-15T12:18:37.229Z,4.5
2019-01-15T12:19:44.446Z,4.5
2019-01-15T12:20:51.656Z,4.5
2019-01-15T12:21:58.892Z,4.5
2019-01-15T12:23:06.086Z,4.5
2019-01-15T12:24:13.306Z,4.6
2019-01-15T12:25:20.515Z,4.6
2019-01-15T12:26:27.734Z,4.6
2019-01-15T12:27:49.577Z,4.7
2019-01-15T12:28:56.500Z,4.7
2019-01-15T12:30:03.430Z,4.7
2019-01-15T12:31:10.631Z,4.7
2019-01-15T12:32:17.834Z,4.7
2019-01-15T12:33:25.034Z,4.7
2019-01-15T12:34:32.235Z,4.7
2019-01-15T12:35:39.450Z,4.8
2019-01-15T12:36:46.670Z,4.7
2019-01-15T12:37:53.615Z,4.8
2019-01-15T12:39:00.821Z,4.8
2019-01-15T12:40:07.770Z,4.8
2019-01-15T12:41:14.731Z,4.8
2019-01-15T12:42:21.937Z,4.8
2019-01-15T12:43:28.937Z,4.9
2019-01-15T12:44:36.139Z,4.9
2019-01-15T12:45:43.347Z,4.9
2019-01-15T12:46:50.552Z,4.9
2019-01-15T12:47:57.496Z,5
2019-01-15T12:49:04.449Z,4.9
2019-01-15T12:50:11.377Z,4.9
2019-01-15T12:51:18.595Z,4.9
2019-01-15T12:52:25.814Z,4.8
2019-01-15T12:53:33.027Z,4.8
2019-01-15T12:54:39.966Z,4.8
2019-01-15T12:55:47.163Z,4.8
2019-01-15T12:56:54.365Z,4.8
2019-01-15T12:58:01.570Z,4.8
2019-01-15T12:59:08.494Z,4.7
2019-01-15T13:00:15.701Z,4.8
2019-01-15T13:01:22.907Z,4.8
2019-01-15T13:02:30.123Z,4.8
2019-01-15T13:03:37.337Z,4.8
2019-01-15T13:04:45.845Z,4.7
2019-01-15T13:05:53.143Z,4.8
2019-01-15T13:07:00.351Z,4.8
2019-01-15T13:08:07.552Z,4.8
2019-01-15T13:09:14.756Z,4.7
2019-01-15T13:10:21.969Z,4.7
2019-01-15T13:11:29.179Z,4.7
2019-01-15T13:12:36.390Z,4.7
2019-01-15T13:13:43.596Z,4.7
2019-01-15T13:14:50.542Z,4.7
2019-01-15T13:15:57.768Z,4.7
2019-01-15T13:17:05.018Z,4.7
2019-01-15T13:18:12.234Z,4.7
2019-01-15T13:19:19.435Z,4.6
2019-01-15T13:20:26.654Z,4.6
2019-01-15T13:21:33.860Z,4.7
2019-01-15T13:22:41.071Z,4.7
2019-01-15T13:23:48.279Z,4.7
2019-01-15T13:24:55.482Z,4.7
2019-01-15T13:26:02.702Z,4.7
2019-01-15T13:27:09.898Z,4.7
2019-01-15T13:28:17.102Z,4.7
2019-01-15T13:29:24.314Z,4.7
2019-01-15T13:30:31.525Z,4.7
2019-01-15T13:31:38.728Z,4.7
2019-01-15T13:32:45.930Z,4.7
2019-01-15T13:33:53.135Z,4.7
2019-01-15T13:34:59.802Z,4.7
2019-01-15T13:36:07.008Z,4.6
2019-01-15T13:37:14.224Z,4.7
2019-01-15T13:38:21.431Z,4.7
2019-01-15T13:39:28.386Z,4.6
2019-01-15T13:40:35.657Z,4.6
2019-01-15T13:41:42.867Z,4.6
2019-01-15T13:42:50.083Z,4.6
2019-01-15T13:43:57.286Z,4.6
2019-01-15T13:45:04.224Z,4.6
2019-01-15T13:46:11.427Z,4.6
2019-01-15T13:47:18.620Z,4.6
2019-01-15T13:48:25.535Z,4.6
2019-01-15T13:49:32.464Z,4.6
2019-01-15T13:50:39.690Z,4.6
2019-01-15T13:51:46.902Z,4.6
2019-01-15T13:52:54.119Z,4.6
2019-01-15T13:54:01.047Z,4.6
2019-01-15T13:55:08.258Z,4.6
2019-01-15T13:56:15.467Z,4.6
2019-01-15T13:57:22.670Z,4.6
2019-01-15T13:58:29.876Z,4.6
2019-01-15T13:59:36.823Z,4.6
2019-01-15T14:00:44.038Z,4.6
2019-01-15T14:01:51.257Z,4.6
2019-01-15T14:02:58.200Z,4.7
2019-01-15T14:04:05.418Z,4.6
2019-01-15T14:05:12.354Z,4.6
2019-01-15T14:06:19.561Z,4.7
2019-01-15T14:07:26.770Z,4.7
2019-01-15T14:08:33.701Z,4.7
2019-01-15T14:09:40.908Z,4.7
2019-01-15T14:10:48.129Z,4.7
2019-01-15T14:11:55.386Z,4.6
2019-01-15T14:13:02.599Z,4.7
2019-01-15T14:14:09.806Z,4.7
2019-01-15T14:15:16.752Z,4.6
2019-01-15T14:16:23.966Z,4.7
2019-01-15T14:17:31.175Z,4.7
2019-01-15T14:18:38.383Z,4.7
2019-01-15T14:19:45.314Z,4.7
2019-01-15T14:20:52.519Z,4.7
2019-01-15T14:21:59.456Z,4.8
2019-01-15T14:23:06.656Z,4.7
2019-01-15T14:24:13.853Z,4.8
2019-01-15T14:25:20.237Z,4.8
2019-01-15T14:26:27.454Z,4.8
2019-01-15T14:27:34.397Z,4.8
2019-01-15T14:28:41.606Z,4.8
2019-01-15T14:29:48.818Z,4.8
2019-01-15T14:30:55.764Z,4.7
2019-01-15T14:32:02.689Z,4.8
2019-01-15T14:33:09.615Z,4.8
2019-01-15T14:34:16.820Z,4.8
2019-01-15T14:35:24.030Z,4.8
2019-01-15T14:36:30.961Z,4.8
2019-01-15T14:37:38.163Z,4.8
2019-01-15T14:38:45.364Z,4.8
2019-01-15T14:39:52.307Z,4.8
2019-01-15T14:40:59.511Z,4.8
2019-01-15T14:42:06.444Z,4.8
2019-01-15T14:43:13.644Z,4.8
2019-01-15T14:44:20.850Z,4.8
2019-01-15T14:45:28.055Z,4.8
2019-01-15T14:46:35.287Z,4.8
2019-01-15T14:47:42.223Z,4.8
2019-01-15T14:48:49.150Z,4.8
2019-01-15T14:49:56.087Z,4.8
2019-01-15T14:51:03.294Z,4.8
2019-01-15T14:52:10.495Z,4.8
2019-01-15T14:53:17.436Z,4.8
2019-01-15T14:54:24.100Z,4.8
2019-01-15T14:55:31.046Z,4.8
2019-01-15T14:56:38.262Z,4.8
2019-01-15T14:57:45.471Z,4.8
2019-01-15T14:58:52.714Z,4.8
2019-01-15T14:59:59.961Z,4.8
2019-01-15T15:01:07.180Z,4.8
2019-01-15T15:02:14.386Z,4.7
2019-01-15T15:03:21.596Z,4.7
2019-01-15T15:04:28.541Z,4.8
2019-01-15T15:05:35.467Z,4.7
2019-01-15T15:06:42.672Z,4.8
2019-01-15T15:07:49.876Z,4.8
2019-01-15T15:08:56.814Z,4.8
2019-01-15T15:10:03.735Z,4.8
2019-01-15T15:11:10.665Z,4.8
2019-01-15T15:12:17.875Z,4.8
2019-01-15T15:13:25.077Z,4.8
2019-01-15T15:14:32.012Z,4.8
2019-01-15T15:15:39.233Z,4.7
2019-01-15T15:16:46.438Z,4.7
2019-01-15T15:17:53.364Z,4.7
2019-01-15T15:19:00.591Z,4.7
2019-01-15T15:20:07.529Z,4.7
2019-01-15T15:21:14.732Z,4.7
2019-01-15T15:22:21.932Z,4.7
2019-01-15T15:23:29.141Z,4.7
2019-01-15T15:24:36.342Z,4.7
2019-01-15T15:25:43.560Z,4.7
2019-01-15T15:26:50.754Z,4.7
2019-01-15T15:27:57.971Z,4.7